sensor_id;sensor_type;location;lat;lon;timestamp;pressure;altitude;pressure_sealevel;temperature;humidity
10392;BME280;5242;49.244;6.774;2023-06-14T00:00:17;99060.91;;;14.11;46.13
10392;BME280;5242;49.244;6.774;2023-06-14T00:08:10;99062.44;;;13.91;45.04
10392;BME280;5242;49.244;6.774;2023-06-14T00:16:02;99056.91;;;13.80;45.74
10392;BME280;5242;49.244;6.774;2023-06-14T00:23:57;99060.78;;;13.68;46.69
10392;BME280;5242;49.244;6.774;2023-06-14T00:31:49;99057.97;;;13.47;46.55
10392;BME280;5242;49.244;6.774;2023-06-14T00:39:41;99053.63;;;13.35;47.52
10392;BME280;5242;49.244;6.774;2023-06-14T00:47:34;99057.06;;;13.25;48.38
10392;BME280;5242;49.244;6.774;2023-06-14T00:55:27;99069.84;;;13.10;47.48
10392;BME280;5242;49.244;6.774;2023-06-14T01:03:19;99072.47;;;12.89;48.21
10392;BME280;5242;49.244;6.774;2023-06-14T01:11:28;99074.25;;;12.70;50.38
10392;BME280;5242;49.244;6.774;2023-06-14T01:19:23;99090.56;;;12.56;51.57
10392;BME280;5242;49.244;6.774;2023-06-14T01:27:17;99088.09;;;12.44;51.12
10392;BME280;5242;49.244;6.774;2023-06-14T01:35:11;99082.16;;;12.34;51.42
10392;BME280;5242;49.244;6.774;2023-06-14T01:43:03;99086.38;;;12.25;50.89
10392;BME280;5242;49.244;6.774;2023-06-14T01:50:55;99104.97;;;12.12;51.94
10392;BME280;5242;49.244;6.774;2023-06-14T01:58:47;99102.06;;;11.98;52.32
10392;BME280;5242;49.244;6.774;2023-06-14T02:06:40;99104.72;;;11.90;53.34
10392;BME280;5242;49.244;6.774;2023-06-14T02:14:32;99098.00;;;11.84;55.03
10392;BME280;5242;49.244;6.774;2023-06-14T02:22:25;99108.06;;;11.80;55.25
10392;BME280;5242;49.244;6.774;2023-06-14T02:30:17;99101.63;;;11.62;56.27
10392;BME280;5242;49.244;6.774;2023-06-14T02:38:09;99105.03;;;11.55;55.65
10392;BME280;5242;49.244;6.774;2023-06-14T02:46:01;99107.19;;;11.42;55.37
10392;BME280;5242;49.244;6.774;2023-06-14T02:53:53;99115.69;;;11.37;58.33
10392;BME280;5242;49.244;6.774;2023-06-14T03:01:45;99114.78;;;11.26;55.84
10392;BME280;5242;49.244;6.774;2023-06-14T03:09:37;99117.78;;;11.17;58.64
10392;BME280;5242;49.244;6.774;2023-06-14T03:17:30;99117.66;;;11.10;58.52
10392;BME280;5242;49.244;6.774;2023-06-14T03:25:25;99120.63;;;11.01;59.89
10392;BME280;5242;49.244;6.774;2023-06-14T03:33:17;99118.63;;;10.98;58.13
10392;BME280;5242;49.244;6.774;2023-06-14T03:41:09;99125.88;;;10.87;59.70
10392;BME280;5242;49.244;6.774;2023-06-14T03:49:01;99144.47;;;10.81;62.52
10392;BME280;5242;49.244;6.774;2023-06-14T03:56:54;99142.88;;;10.80;62.18
10392;BME280;5242;49.244;6.774;2023-06-14T04:04:50;99156.97;;;10.86;62.64
10392;BME280;5242;49.244;6.774;2023-06-14T04:12:43;99159.50;;;10.98;62.88
10392;BME280;5242;49.244;6.774;2023-06-14T04:20:35;99160.66;;;11.20;64.82
10392;BME280;5242;49.244;6.774;2023-06-14T04:28:27;99178.09;;;11.42;63.01
10392;BME280;5242;49.244;6.774;2023-06-14T04:36:19;99183.09;;;11.63;63.67
10392;BME280;5242;49.244;6.774;2023-06-14T04:44:11;99189.25;;;11.87;63.46
10392;BME280;5242;49.244;6.774;2023-06-14T04:52:04;99179.88;;;12.18;65.74
10392;BME280;5242;49.244;6.774;2023-06-14T04:59:56;99183.34;;;12.49;61.39
10392;BME280;5242;49.244;6.774;2023-06-14T05:07:49;99186.84;;;12.87;65.02
10392;BME280;5242;49.244;6.774;2023-06-14T05:15:41;99182.41;;;13.19;63.80
10392;BME280;5242;49.244;6.774;2023-06-14T05:23:33;99186.63;;;13.61;61.45
10392;BME280;5242;49.244;6.774;2023-06-14T05:31:25;99189.56;;;14.08;61.44
10392;BME280;5242;49.244;6.774;2023-06-14T05:39:17;99182.72;;;14.53;61.51
10392;BME280;5242;49.244;6.774;2023-06-14T05:47:09;99189.81;;;15.01;58.92
10392;BME280;5242;49.244;6.774;2023-06-14T05:55:01;99192.88;;;15.57;58.72
10392;BME280;5242;49.244;6.774;2023-06-14T06:02:53;99188.44;;;16.17;58.63
10392;BME280;5242;49.244;6.774;2023-06-14T06:10:49;99192.81;;;16.77;57.98
10392;BME280;5242;49.244;6.774;2023-06-14T06:18:41;99208.94;;;17.31;55.14
10392;BME280;5242;49.244;6.774;2023-06-14T06:26:36;99205.03;;;18.04;52.70
10392;BME280;5242;49.244;6.774;2023-06-14T06:34:28;99208.66;;;18.89;49.12
10392;BME280;5242;49.244;6.774;2023-06-14T06:42:20;99213.53;;;19.52;46.54
10392;BME280;5242;49.244;6.774;2023-06-14T06:50:12;99217.34;;;20.22;43.93
10392;BME280;5242;49.244;6.774;2023-06-14T06:58:04;99218.81;;;20.67;40.83
10392;BME280;5242;49.244;6.774;2023-06-14T07:05:57;99222.47;;;21.13;39.20
10392;BME280;5242;49.244;6.774;2023-06-14T07:13:49;99222.03;;;21.63;38.17
10392;BME280;5242;49.244;6.774;2023-06-14T07:21:42;99226.38;;;21.93;37.34
10392;BME280;5242;49.244;6.774;2023-06-14T07:29:34;99225.81;;;22.28;36.84
10392;BME280;5242;49.244;6.774;2023-06-14T07:37:26;99237.31;;;22.68;35.86
10392;BME280;5242;49.244;6.774;2023-06-14T07:45:18;99227.97;;;22.88;35.48
10392;BME280;5242;49.244;6.774;2023-06-14T07:53:11;99235.97;;;23.37;34.54
10392;BME280;5242;49.244;6.774;2023-06-14T08:01:03;99229.75;;;24.02;34.02
10392;BME280;5242;49.244;6.774;2023-06-14T08:08:58;99224.78;;;24.72;32.71
10392;BME280;5242;49.244;6.774;2023-06-14T08:16:49;99210.34;;;25.14;30.75
10392;BME280;5242;49.244;6.774;2023-06-14T08:24:41;99232.59;;;25.64;30.27
10392;BME280;5242;49.244;6.774;2023-06-14T08:32:34;99222.69;;;26.09;30.20
10392;BME280;5242;49.244;6.774;2023-06-14T08:40:27;99220.13;;;26.57;28.75
10392;BME280;5242;49.244;6.774;2023-06-14T08:48:23;99217.22;;;26.85;27.21
10392;BME280;5242;49.244;6.774;2023-06-14T08:56:17;99218.06;;;27.34;26.85
10392;BME280;5242;49.244;6.774;2023-06-14T09:04:10;99232.28;;;29.17;23.96
10392;BME280;5242;49.244;6.774;2023-06-14T09:12:02;99229.50;;;30.57;22.64
10392;BME280;5242;49.244;6.774;2023-06-14T09:19:55;99232.88;;;31.41;21.80
10392;BME280;5242;49.244;6.774;2023-06-14T09:27:47;99233.25;;;31.66;21.10
10392;BME280;5242;49.244;6.774;2023-06-14T09:35:39;99243.75;;;31.71;21.04
10392;BME280;5242;49.244;6.774;2023-06-14T09:43:31;99247.13;;;31.87;21.39
10392;BME280;5242;49.244;6.774;2023-06-14T09:51:26;99246.84;;;31.84;21.32
10392;BME280;5242;49.244;6.774;2023-06-14T09:59:26;99251.44;;;31.76;21.00
10392;BME280;5242;49.244;6.774;2023-06-14T10:07:22;99243.56;;;30.63;21.66
10392;BME280;5242;49.244;6.774;2023-06-14T10:15:20;99246.78;;;31.13;21.30
10392;BME280;5242;49.244;6.774;2023-06-14T10:23:20;99239.31;;;32.24;20.39
10392;BME280;5242;49.244;6.774;2023-06-14T10:31:13;99242.13;;;33.03;18.52
10392;BME280;5242;49.244;6.774;2023-06-14T10:39:12;99240.56;;;33.83;17.38
10392;BME280;5242;49.244;6.774;2023-06-14T10:47:30;99232.63;;;34.23;17.64
10392;BME280;5242;49.244;6.774;2023-06-14T10:55:23;99237.75;;;32.23;18.72
10392;BME280;5242;49.244;6.774;2023-06-14T11:03:31;99240.28;;;31.93;19.04
10392;BME280;5242;49.244;6.774;2023-06-14T11:11:32;99223.50;;;33.59;18.18
10392;BME280;5242;49.244;6.774;2023-06-14T11:19:27;99227.94;;;33.37;18.13
10392;BME280;5242;49.244;6.774;2023-06-14T11:27:21;99227.75;;;33.01;18.08
10392;BME280;5242;49.244;6.774;2023-06-14T11:35:13;99227.78;;;32.79;17.94
10392;BME280;5242;49.244;6.774;2023-06-14T11:43:05;99219.34;;;32.45;18.70
10392;BME280;5242;49.244;6.774;2023-06-14T11:50:57;99209.56;;;32.80;18.29
10392;BME280;5242;49.244;6.774;2023-06-14T11:58:49;99210.59;;;32.94;18.10
10392;BME280;5242;49.244;6.774;2023-06-14T12:06:41;99209.75;;;33.27;18.22
10392;BME280;5242;49.244;6.774;2023-06-14T12:14:35;99214.91;;;33.81;18.04
10392;BME280;5242;49.244;6.774;2023-06-14T12:22:27;99190.69;;;34.33;16.75
10392;BME280;5242;49.244;6.774;2023-06-14T12:30:19;99188.41;;;33.43;17.71
10392;BME280;5242;49.244;6.774;2023-06-14T12:38:11;99198.84;;;32.16;18.78
10392;BME280;5242;49.244;6.774;2023-06-14T12:46:03;99202.88;;;33.05;18.57
10392;BME280;5242;49.244;6.774;2023-06-14T12:53:55;99204.97;;;34.16;17.20
10392;BME280;5242;49.244;6.774;2023-06-14T13:01:47;99208.34;;;34.09;17.36
10392;BME280;5242;49.244;6.774;2023-06-14T13:09:42;99196.91;;;34.26;17.08
10392;BME280;5242;49.244;6.774;2023-06-14T13:17:35;99214.94;;;33.75;17.74
10392;BME280;5242;49.244;6.774;2023-06-14T13:25:30;99205.47;;;32.13;18.49
10392;BME280;5242;49.244;6.774;2023-06-14T13:33:22;99213.78;;;30.39;20.11
10392;BME280;5242;49.244;6.774;2023-06-14T13:41:15;99215.03;;;29.24;21.14
10392;BME280;5242;49.244;6.774;2023-06-14T13:49:08;99207.88;;;29.23;21.16
10392;BME280;5242;49.244;6.774;2023-06-14T13:57:04;99204.78;;;29.21;21.53
10392;BME280;5242;49.244;6.774;2023-06-14T14:04:56;99200.97;;;29.04;22.04
10392;BME280;5242;49.244;6.774;2023-06-14T14:12:49;99200.53;;;28.91;21.92
10392;BME280;5242;49.244;6.774;2023-06-14T14:20:41;99199.34;;;28.47;22.60
10392;BME280;5242;49.244;6.774;2023-06-14T14:28:32;99201.56;;;28.28;22.86
10392;BME280;5242;49.244;6.774;2023-06-14T14:36:25;99204.44;;;27.89;23.11
10392;BME280;5242;49.244;6.774;2023-06-14T14:44:17;99204.19;;;27.78;23.24
10392;BME280;5242;49.244;6.774;2023-06-14T14:52:10;99205.81;;;28.09;23.16
10392;BME280;5242;49.244;6.774;2023-06-14T15:00:15;99205.47;;;27.77;23.78
10392;BME280;5242;49.244;6.774;2023-06-14T15:08:08;99202.41;;;27.51;23.92
10392;BME280;5242;49.244;6.774;2023-06-14T15:16:04;99204.06;;;27.58;24.06
10392;BME280;5242;49.244;6.774;2023-06-14T15:23:55;99197.13;;;27.68;24.44
10392;BME280;5242;49.244;6.774;2023-06-14T15:31:47;99206.56;;;27.56;24.28
10392;BME280;5242;49.244;6.774;2023-06-14T15:39:40;99196.47;;;27.34;24.65
10392;BME280;5242;49.244;6.774;2023-06-14T15:47:32;99172.78;;;27.44;25.04
10392;BME280;5242;49.244;6.774;2023-06-14T15:55:24;99188.00;;;26.95;25.51
10392;BME280;5242;49.244;6.774;2023-06-14T16:03:16;99200.13;;;26.92;25.53
10392;BME280;5242;49.244;6.774;2023-06-14T16:11:08;99202.25;;;26.97;25.93
10392;BME280;5242;49.244;6.774;2023-06-14T16:19:00;99206.03;;;26.85;25.92
10392;BME280;5242;49.244;6.774;2023-06-14T16:26:52;99197.66;;;26.85;25.91
10392;BME280;5242;49.244;6.774;2023-06-14T16:34:46;99200.63;;;26.39;26.59
10392;BME280;5242;49.244;6.774;2023-06-14T16:42:37;99213.38;;;26.31;26.69
10392;BME280;5242;49.244;6.774;2023-06-14T16:50:30;99216.31;;;26.18;26.91
10392;BME280;5242;49.244;6.774;2023-06-14T16:58:22;99239.13;;;25.89;27.81
10392;BME280;5242;49.244;6.774;2023-06-14T17:06:14;99241.31;;;25.94;27.60
10392;BME280;5242;49.244;6.774;2023-06-14T17:14:06;99251.81;;;25.62;27.86
10392;BME280;5242;49.244;6.774;2023-06-14T17:21:59;99255.19;;;25.48;27.88
10392;BME280;5242;49.244;6.774;2023-06-14T17:29:51;99266.78;;;25.46;27.70
10392;BME280;5242;49.244;6.774;2023-06-14T17:37:43;99265.56;;;25.47;27.72
10392;BME280;5242;49.244;6.774;2023-06-14T17:45:35;99276.19;;;25.21;27.68
10392;BME280;5242;49.244;6.774;2023-06-14T17:53:27;99285.00;;;24.88;27.92
10392;BME280;5242;49.244;6.774;2023-06-14T18:01:20;99289.63;;;24.82;28.07
10392;BME280;5242;49.244;6.774;2023-06-14T18:09:12;99301.44;;;24.64;27.95
10392;BME280;5242;49.244;6.774;2023-06-14T18:17:06;99304.22;;;24.42;28.09
10392;BME280;5242;49.244;6.774;2023-06-14T18:24:58;99312.44;;;24.24;28.36
10392;BME280;5242;49.244;6.774;2023-06-14T18:32:50;99320.25;;;24.16;28.49
10392;BME280;5242;49.244;6.774;2023-06-14T18:40:42;99327.25;;;23.86;29.12
10392;BME280;5242;49.244;6.774;2023-06-14T18:48:34;99339.19;;;23.61;29.15
10392;BME280;5242;49.244;6.774;2023-06-14T18:56:26;99344.00;;;23.35;30.43
10392;BME280;5242;49.244;6.774;2023-06-14T19:04:18;99337.66;;;23.09;30.46
10392;BME280;5242;49.244;6.774;2023-06-14T19:12:10;99353.72;;;22.88;31.36
10392;BME280;5242;49.244;6.774;2023-06-14T19:20:04;99360.31;;;22.65;30.96
10392;BME280;5242;49.244;6.774;2023-06-14T19:27:56;99360.03;;;22.47;31.69
10392;BME280;5242;49.244;6.774;2023-06-14T19:35:48;99368.28;;;22.34;31.85
10392;BME280;5242;49.244;6.774;2023-06-14T19:43:40;99379.84;;;22.16;31.86
10392;BME280;5242;49.244;6.774;2023-06-14T19:51:31;99388.19;;;22.00;32.15
10392;BME280;5242;49.244;6.774;2023-06-14T19:59:23;99400.50;;;21.82;32.90
10392;BME280;5242;49.244;6.774;2023-06-14T20:07:15;99410.72;;;21.53;34.36
10392;BME280;5242;49.244;6.774;2023-06-14T20:15:09;99423.56;;;21.06;35.13
10392;BME280;5242;49.244;6.774;2023-06-14T20:23:00;99433.03;;;20.66;36.10
10392;BME280;5242;49.244;6.774;2023-06-14T20:30:56;99433.66;;;20.30;35.43
10392;BME280;5242;49.244;6.774;2023-06-14T20:38:48;99453.25;;;19.92;36.91
10392;BME280;5242;49.244;6.774;2023-06-14T20:46:40;99454.53;;;19.57;37.93
10392;BME280;5242;49.244;6.774;2023-06-14T20:54:36;99458.16;;;19.23;38.07
10392;BME280;5242;49.244;6.774;2023-06-14T21:02:31;99461.66;;;18.93;38.18
10392;BME280;5242;49.244;6.774;2023-06-14T21:10:23;99471.44;;;18.59;39.66
10392;BME280;5242;49.244;6.774;2023-06-14T21:18:16;99466.16;;;18.34;41.45
10392;BME280;5242;49.244;6.774;2023-06-14T21:26:08;99470.28;;;18.12;41.18
10392;BME280;5242;49.244;6.774;2023-06-14T21:34:01;99483.81;;;17.92;42.21
10392;BME280;5242;49.244;6.774;2023-06-14T21:41:53;99483.56;;;17.65;42.97
10392;BME280;5242;49.244;6.774;2023-06-14T21:49:46;99489.59;;;17.38;44.01
10392;BME280;5242;49.244;6.774;2023-06-14T21:57:38;99498.78;;;16.99;44.38
10392;BME280;5242;49.244;6.774;2023-06-14T22:05:30;99490.59;;;16.70;44.77
10392;BME280;5242;49.244;6.774;2023-06-14T22:13:22;99498.06;;;16.48;45.02
10392;BME280;5242;49.244;6.774;2023-06-14T22:21:14;99505.94;;;16.21;45.06
10392;BME280;5242;49.244;6.774;2023-06-14T22:29:06;99504.34;;;15.92;47.41
10392;BME280;5242;49.244;6.774;2023-06-14T22:36:58;99496.78;;;15.67;46.36
10392;BME280;5242;49.244;6.774;2023-06-14T22:44:57;99496.75;;;15.49;47.90
10392;BME280;5242;49.244;6.774;2023-06-14T22:52:52;99510.41;;;15.31;47.52
10392;BME280;5242;49.244;6.774;2023-06-14T23:00:44;99514.63;;;15.11;48.95
10392;BME280;5242;49.244;6.774;2023-06-14T23:08:39;99505.16;;;14.97;50.06
10392;BME280;5242;49.244;6.774;2023-06-14T23:16:37;99505.09;;;14.83;50.61
10392;BME280;5242;49.244;6.774;2023-06-14T23:24:29;99509.66;;;14.65;51.46
10392;BME280;5242;49.244;6.774;2023-06-14T23:32:21;99497.75;;;14.46;51.42
10392;BME280;5242;49.244;6.774;2023-06-14T23:40:16;99503.09;;;14.28;51.36
10392;BME280;5242;49.244;6.774;2023-06-14T23:48:08;99501.03;;;14.14;52.42
10392;BME280;5242;49.244;6.774;2023-06-14T23:56:03;99508.25;;;13.92;55.62
